createdAt,value
2022-12-03T00:00:10.510Z,59.70
2022-12-03T00:00:14.893Z,61.80
2022-12-03T00:00:24.917Z,61.90
2022-12-03T00:00:34.886Z,63.00
2022-12-03T00:00:44.882Z,62.30
2022-12-03T00:00:54.907Z,63.40
2022-12-03T00:01:05.709Z,62.00
2022-12-03T00:01:14.898Z,60.90
2022-12-03T00:01:24.895Z,60.10
2022-12-03T00:01:34.890Z,61.70
2022-12-03T00:01:44.901Z,62.50
2022-12-03T00:01:54.895Z,63.00
2022-12-03T00:02:04.902Z,62.60
2022-12-03T00:02:15.848Z,62.40
2022-12-03T00:02:25.032Z,63.10
2022-12-03T00:02:35.020Z,64.00
2022-12-03T00:02:45.159Z,63.90
2022-12-03T00:02:55.080Z,63.20
2022-12-03T00:03:05.076Z,62.40
2022-12-03T00:03:15.114Z,62.70
2022-12-03T00:03:25.085Z,62.00
2022-12-03T00:03:34.997Z,62.10
2022-12-03T00:03:45.062Z,61.10
2022-12-03T00:03:55.070Z,63.00
2022-12-03T00:04:05.000Z,62.40
2022-12-03T00:04:14.898Z,62.60
2022-12-03T00:04:24.872Z,60.60
2022-12-03T00:04:34.899Z,60.50
2022-12-03T00:04:44.872Z,60.70
2022-12-03T00:04:55.288Z,62.00
2022-12-03T00:05:05.043Z,62.30
2022-12-03T00:05:14.892Z,61.90
2022-12-03T00:05:24.872Z,61.10
2022-12-03T00:05:34.886Z,60.90
2022-12-03T00:05:49.103Z,61.40
2022-12-03T00:05:54.877Z,62.10
2022-12-03T00:06:04.957Z,63.60
2022-12-03T00:06:14.865Z,63.60
2022-12-03T00:06:25.659Z,63.30
2022-12-03T00:06:35.019Z,62.80
2022-12-03T00:06:44.877Z,62.70
2022-12-03T00:06:54.864Z,62.00
2022-12-03T00:07:04.887Z,64.30
2022-12-03T00:07:14.881Z,63.60
2022-12-03T00:07:24.920Z,63.90
2022-12-03T00:07:34.938Z,61.10
2022-12-03T00:07:44.900Z,62.60
2022-12-03T00:07:55.791Z,63.10
2022-12-03T00:08:04.931Z,63.90
2022-12-03T00:08:15.869Z,63.80
2022-12-03T00:08:24.859Z,62.80
2022-12-03T00:08:34.857Z,61.80
2022-12-03T00:08:44.863Z,61.60
2022-12-03T00:08:54.869Z,62.80
2022-12-03T00:09:04.859Z,63.60
2022-12-03T00:09:15.714Z,63.80
2022-12-03T00:09:24.870Z,63.40
2022-12-03T00:09:34.901Z,64.00
2022-12-03T00:09:44.856Z,63.80
2022-12-03T00:09:54.873Z,63.90
2022-12-03T00:10:04.846Z,63.90
2022-12-03T00:10:14.869Z,65.40
2022-12-03T00:10:24.888Z,65.50
2022-12-03T00:10:34.930Z,65.60
2022-12-03T00:10:44.852Z,63.80
2022-12-03T00:10:54.856Z,64.20
2022-12-03T00:11:04.850Z,63.60
2022-12-03T00:11:14.849Z,66.00
2022-12-03T00:11:24.871Z,66.60
2022-12-03T00:11:34.846Z,67.80
2022-12-03T00:11:44.857Z,66.40
2022-12-03T00:11:54.853Z,65.10
2022-12-03T00:12:04.861Z,63.80
2022-12-03T00:12:14.846Z,63.20
2022-12-03T00:12:24.841Z,65.00
2022-12-03T00:12:34.850Z,65.40
2022-12-03T00:12:44.864Z,65.70
2022-12-03T00:12:54.839Z,64.30
2022-12-03T00:13:05.060Z,64.50
2022-12-03T00:13:14.868Z,63.30
2022-12-03T00:13:25.734Z,63.40
2022-12-03T00:13:34.973Z,64.10
2022-12-03T00:13:44.871Z,64.60
2022-12-03T00:13:54.841Z,64.80
2022-12-03T00:14:04.839Z,64.60
2022-12-03T00:14:14.847Z,64.40
2022-12-03T00:14:24.872Z,63.60
2022-12-03T00:14:36.158Z,61.00
2022-12-03T00:14:45.161Z,60.00
2022-12-03T00:14:55.286Z,60.40
2022-12-03T00:15:04.874Z,61.00
2022-12-03T00:15:14.856Z,62.00
2022-12-03T00:15:24.844Z,61.20
2022-12-03T00:15:34.882Z,60.70
2022-12-03T00:15:44.936Z,60.50
2022-12-03T00:15:54.891Z,60.80
2022-12-03T00:16:04.902Z,61.60
2022-12-03T00:16:15.746Z,62.10
2022-12-03T00:16:24.855Z,62.60
2022-12-03T00:16:34.852Z,62.00
2022-12-03T00:16:44.836Z,61.40
2022-12-03T00:16:54.827Z,61.30
2022-12-03T00:17:04.958Z,62.30
2022-12-03T00:17:14.939Z,63.00
2022-12-03T00:17:24.849Z,62.30
2022-12-03T00:17:34.851Z,60.70
2022-12-03T00:17:44.816Z,60.30
2022-12-03T00:17:54.820Z,60.00
2022-12-03T00:18:05.743Z,59.90
2022-12-03T00:18:14.892Z,60.30
2022-12-03T00:18:24.826Z,60.80
2022-12-03T00:18:34.871Z,61.60
2022-12-03T00:18:44.825Z,61.30
2022-12-03T00:18:54.857Z,61.90
2022-12-03T00:19:04.875Z,62.90
2022-12-03T00:19:14.818Z,63.20
2022-12-03T00:19:24.887Z,62.30
2022-12-03T00:19:34.813Z,62.60
2022-12-03T00:19:44.812Z,63.30
2022-12-03T00:19:54.831Z,64.60
2022-12-03T00:20:04.817Z,64.70
2022-12-03T00:20:14.821Z,63.70
2022-12-03T00:20:24.838Z,63.50
2022-12-03T00:20:34.923Z,63.00
2022-12-03T00:20:44.810Z,64.10
2022-12-03T00:20:54.825Z,62.70
2022-12-03T00:21:04.808Z,61.40
2022-12-03T00:21:14.815Z,58.40
2022-12-03T00:21:25.094Z,58.80
2022-12-03T00:21:34.810Z,59.90
2022-12-03T00:21:44.809Z,62.80
2022-12-03T00:21:54.916Z,63.80
2022-12-03T00:22:05.211Z,63.40
2022-12-03T00:22:14.812Z,63.80
2022-12-03T00:22:24.804Z,62.80
2022-12-03T00:22:34.807Z,62.70
2022-12-03T00:22:44.828Z,60.90
2022-12-03T00:22:54.809Z,62.20
2022-12-03T00:23:04.802Z,62.50
2022-12-03T00:23:14.840Z,63.30
2022-12-03T00:23:24.964Z,63.10
2022-12-03T00:23:40.168Z,64.00
2022-12-03T00:23:44.827Z,64.40
2022-12-03T00:23:54.822Z,64.40
2022-12-03T00:24:04.804Z,64.30
2022-12-03T00:24:14.866Z,65.00
2022-12-03T00:24:25.735Z,64.90
2022-12-03T00:24:34.799Z,64.40
2022-12-03T00:24:44.791Z,64.40
2022-12-03T00:24:55.067Z,63.60
2022-12-03T00:25:04.837Z,63.20
2022-12-03T00:25:14.807Z,62.70
2022-12-03T00:25:24.809Z,63.50
2022-12-03T00:25:34.803Z,62.90
2022-12-03T00:25:44.892Z,63.30
2022-12-03T00:25:54.789Z,63.50
2022-12-03T00:26:04.861Z,65.30
2022-12-03T00:26:14.796Z,64.60
2022-12-03T00:26:24.787Z,64.30
2022-12-03T00:26:34.848Z,64.50
2022-12-03T00:26:44.791Z,64.70
2022-12-03T00:26:54.808Z,63.70
2022-12-03T00:27:04.820Z,61.90
2022-12-03T00:27:14.795Z,61.30
2022-12-03T00:27:25.713Z,60.60
2022-12-03T00:27:34.787Z,59.80
2022-12-03T00:27:44.785Z,61.00
2022-12-03T00:27:54.784Z,63.40
2022-12-03T00:28:04.776Z,64.30
2022-12-03T00:28:14.789Z,64.00
2022-12-03T00:28:24.794Z,63.20
2022-12-03T00:28:34.821Z,63.00
2022-12-03T00:28:44.782Z,63.00
2022-12-03T00:28:55.016Z,63.50
2022-12-03T00:29:05.760Z,65.30
2022-12-03T00:29:14.771Z,65.10
2022-12-03T00:29:24.791Z,64.80
2022-12-03T00:29:34.795Z,63.70
2022-12-03T00:29:44.776Z,63.20
2022-12-03T00:29:54.801Z,63.10
2022-12-03T00:30:04.778Z,63.90
2022-12-03T00:30:15.744Z,64.00
2022-12-03T00:30:24.784Z,63.80
2022-12-03T00:30:34.771Z,63.80
2022-12-03T00:30:44.876Z,64.50
2022-12-03T00:30:54.848Z,65.40
2022-12-03T00:31:04.953Z,65.70
2022-12-03T00:31:14.830Z,66.10
2022-12-03T00:31:24.840Z,65.80
2022-12-03T00:31:34.882Z,65.70
2022-12-03T00:31:44.844Z,65.80
2022-12-03T00:31:54.783Z,66.50
2022-12-03T00:32:04.789Z,66.30
2022-12-03T00:32:14.788Z,66.60
2022-12-03T00:32:24.765Z,64.70
2022-12-03T00:32:34.762Z,65.20
2022-12-03T00:32:44.765Z,65.50
2022-12-03T00:32:57.801Z,67.90
2022-12-03T00:33:04.839Z,67.90
2022-12-03T00:33:14.783Z,67.10
2022-12-03T00:33:24.769Z,65.60
2022-12-03T00:33:34.785Z,65.00
2022-12-03T00:33:45.340Z,64.70
2022-12-03T00:33:54.768Z,66.20
2022-12-03T00:34:04.782Z,67.30
2022-12-03T00:34:14.765Z,67.80
2022-12-03T00:34:24.797Z,67.80
2022-12-03T00:34:34.773Z,67.80
2022-12-03T00:34:44.786Z,67.60
2022-12-03T00:34:54.940Z,66.70
2022-12-03T00:35:04.775Z,66.00
2022-12-03T00:35:14.754Z,65.50
2022-12-03T00:35:25.725Z,67.20
2022-12-03T00:35:34.773Z,67.00
2022-12-03T00:35:45.752Z,66.90
2022-12-03T00:35:55.719Z,65.40
2022-12-03T00:36:04.781Z,64.50
2022-12-03T00:36:14.856Z,63.80
2022-12-03T00:36:24.769Z,61.30
2022-12-03T00:36:34.792Z,62.20
2022-12-03T00:36:44.756Z,62.10
2022-12-03T00:36:54.766Z,63.40
2022-12-03T00:37:04.740Z,63.00
2022-12-03T00:37:14.776Z,63.80
2022-12-03T00:37:24.810Z,65.30
2022-12-03T00:37:34.745Z,65.10
2022-12-03T00:37:44.748Z,65.00
2022-12-03T00:37:54.877Z,64.00
2022-12-03T00:38:04.739Z,63.80
2022-12-03T00:38:14.748Z,63.50
2022-12-03T00:38:24.765Z,64.30
2022-12-03T00:38:34.735Z,65.10
2022-12-03T00:38:44.738Z,66.10
2022-12-03T00:38:54.867Z,65.80
2022-12-03T00:39:04.732Z,65.60
2022-12-03T00:39:14.757Z,65.10
2022-12-03T00:39:24.812Z,64.60
2022-12-03T00:39:34.749Z,65.30
2022-12-03T00:39:45.717Z,65.80
2022-12-03T00:39:54.771Z,66.00
2022-12-03T00:40:04.936Z,65.80
2022-12-03T00:40:15.735Z,65.60
2022-12-03T00:40:24.730Z,67.00
2022-12-03T00:40:34.736Z,66.70
2022-12-03T00:40:44.741Z,66.80
2022-12-03T00:40:54.726Z,66.80
2022-12-03T00:41:04.761Z,67.20
2022-12-03T00:41:14.757Z,68.40
2022-12-03T00:41:27.846Z,67.80
2022-12-03T00:41:34.768Z,68.10
2022-12-03T00:41:44.760Z,67.00
2022-12-03T00:41:54.738Z,67.80
2022-12-03T00:42:04.733Z,68.60
2022-12-03T00:42:14.766Z,68.10
2022-12-03T00:42:25.812Z,67.50
2022-12-03T00:42:34.733Z,66.20
2022-12-03T00:42:44.868Z,65.90
2022-12-03T00:42:54.724Z,64.70
2022-12-03T00:43:04.738Z,64.20
2022-12-03T00:43:14.758Z,64.90
2022-12-03T00:43:24.740Z,65.10
2022-12-03T00:43:34.747Z,66.50
2022-12-03T00:43:44.739Z,66.00
2022-12-03T00:43:54.722Z,67.70
2022-12-03T00:44:04.767Z,67.50
2022-12-03T00:44:14.784Z,68.70
2022-12-03T00:44:24.916Z,67.80
2022-12-03T00:44:34.912Z,68.10
2022-12-03T00:44:44.741Z,67.20
2022-12-03T00:44:55.195Z,67.40
2022-12-03T00:45:04.750Z,68.10
2022-12-03T00:45:14.813Z,68.10
2022-12-03T00:45:24.724Z,68.30
2022-12-03T00:45:34.793Z,66.90
2022-12-03T00:45:44.710Z,67.40
2022-12-03T00:45:54.719Z,66.90
2022-12-03T00:46:04.829Z,67.50
2022-12-03T00:46:19.713Z,67.80
2022-12-03T00:46:24.824Z,66.80
2022-12-03T00:46:34.759Z,66.80
2022-12-03T00:46:44.931Z,67.00
2022-12-03T00:46:54.799Z,68.20
2022-12-03T00:47:04.787Z,68.50
2022-12-03T00:47:14.782Z,68.00
2022-12-03T00:47:24.733Z,67.60
2022-12-03T00:47:34.705Z,67.40
2022-12-03T00:47:44.708Z,67.70
2022-12-03T00:47:54.730Z,67.80
2022-12-03T00:48:04.704Z,67.00
2022-12-03T00:48:14.722Z,66.80
2022-12-03T00:48:24.741Z,67.50
2022-12-03T00:48:34.707Z,68.00
2022-12-03T00:48:44.702Z,68.00
2022-12-03T00:48:54.741Z,67.50
2022-12-03T00:49:04.714Z,68.40
2022-12-03T00:49:14.799Z,67.90
2022-12-03T00:49:24.733Z,67.40
2022-12-03T00:49:34.701Z,66.10
2022-12-03T00:49:44.702Z,66.90
2022-12-03T00:49:54.840Z,68.20
2022-12-03T00:50:04.702Z,68.80
2022-12-03T00:50:14.711Z,69.20
2022-12-03T00:50:24.716Z,69.30
2022-12-03T00:50:34.697Z,69.40
2022-12-03T00:50:44.714Z,68.00
2022-12-03T00:50:54.688Z,66.00
2022-12-03T00:51:04.702Z,64.90
2022-12-03T00:51:14.862Z,66.00
2022-12-03T00:51:24.690Z,68.00
2022-12-03T00:51:34.715Z,67.60
2022-12-03T00:51:44.716Z,67.80
2022-12-03T00:51:54.685Z,66.50
2022-12-03T00:52:04.690Z,65.40
2022-12-03T00:52:14.742Z,64.00
2022-12-03T00:52:24.720Z,65.90
2022-12-03T00:52:34.691Z,66.10
2022-12-03T00:52:44.733Z,65.70
2022-12-03T00:52:54.686Z,64.20
2022-12-03T00:53:05.234Z,65.00
2022-12-03T00:53:14.686Z,66.90
2022-12-03T00:53:24.703Z,65.90
2022-12-03T00:53:34.740Z,65.30
2022-12-03T00:53:44.682Z,64.90
2022-12-03T00:53:54.694Z,67.30
2022-12-03T00:54:04.748Z,68.00
2022-12-03T00:54:14.692Z,67.60
2022-12-03T00:54:30.215Z,66.60
2022-12-03T00:54:34.709Z,66.50
2022-12-03T00:54:44.688Z,66.70
2022-12-03T00:54:54.972Z,68.30
2022-12-03T00:55:04.706Z,68.50
2022-12-03T00:55:14.775Z,67.90
2022-12-03T00:55:25.249Z,65.50
2022-12-03T00:55:34.712Z,64.30
2022-12-03T00:55:44.675Z,64.50
2022-12-03T00:55:54.683Z,65.00
2022-12-03T00:56:04.672Z,65.40
2022-12-03T00:56:14.699Z,67.70
2022-12-03T00:56:24.700Z,68.40
2022-12-03T00:56:34.670Z,68.90
2022-12-03T00:56:44.778Z,68.10
2022-12-03T00:56:54.888Z,67.10
2022-12-03T00:57:04.668Z,66.70
2022-12-03T00:57:14.798Z,65.80
2022-12-03T00:57:24.688Z,66.60
2022-12-03T00:57:34.797Z,68.30
2022-12-03T00:57:44.675Z,68.00
2022-12-03T00:57:54.698Z,68.70
2022-12-03T00:58:05.250Z,66.10
2022-12-03T00:58:14.769Z,66.40
2022-12-03T00:58:24.698Z,65.90
2022-12-03T00:58:34.662Z,67.60
2022-12-03T00:58:44.691Z,67.70
2022-12-03T00:58:54.656Z,66.50
2022-12-03T00:59:04.670Z,66.10
2022-12-03T00:59:14.703Z,65.90
2022-12-03T00:59:24.677Z,65.90
2022-12-03T00:59:34.789Z,67.00
2022-12-03T00:59:44.674Z,67.90
2022-12-03T00:59:54.678Z,68.70
2022-12-03T01:00:04.667Z,67.40
2022-12-03T01:00:14.879Z,67.30
2022-12-03T01:00:25.318Z,67.60
2022-12-03T01:00:34.669Z,66.90
2022-12-03T01:00:44.686Z,65.10
2022-12-03T01:00:54.662Z,63.50
2022-12-03T01:01:04.667Z,64.40
2022-12-03T01:01:14.738Z,65.70
2022-12-03T01:01:24.762Z,65.60
2022-12-03T01:01:34.747Z,66.00
2022-12-03T01:01:44.729Z,65.20
2022-12-03T01:01:54.701Z,66.20
2022-12-03T01:02:04.748Z,66.50
2022-12-03T01:02:14.750Z,66.30
2022-12-03T01:02:24.721Z,66.10
2022-12-03T01:02:34.730Z,66.80
2022-12-03T01:02:44.645Z,67.20
2022-12-03T01:02:54.643Z,67.30
2022-12-03T01:03:04.716Z,65.60
2022-12-03T01:03:14.641Z,65.60
2022-12-03T01:03:25.238Z,65.40
2022-12-03T01:03:34.667Z,66.60
2022-12-03T01:03:44.693Z,67.00
2022-12-03T01:03:54.635Z,67.90
2022-12-03T01:04:04.671Z,67.60
2022-12-03T01:04:14.664Z,67.10
2022-12-03T01:04:24.711Z,66.10
2022-12-03T01:04:34.738Z,65.60
2022-12-03T01:04:44.748Z,64.20
2022-12-03T01:04:54.892Z,63.60
2022-12-03T01:05:04.708Z,62.90
2022-12-03T01:05:14.786Z,65.30
2022-12-03T01:05:24.661Z,65.90
2022-12-03T01:05:34.647Z,65.30
2022-12-03T01:05:44.641Z,63.90
2022-12-03T01:05:54.657Z,64.10
2022-12-03T01:06:04.635Z,64.80
2022-12-03T01:06:14.638Z,64.70
2022-12-03T01:06:24.661Z,65.10
2022-12-03T01:06:35.221Z,64.40
2022-12-03T01:06:45.304Z,65.80
2022-12-03T01:06:54.651Z,65.00
2022-12-03T01:07:04.640Z,67.00
2022-12-03T01:07:14.634Z,65.80
2022-12-03T01:07:24.740Z,64.40
2022-12-03T01:07:34.748Z,64.10
2022-12-03T01:07:44.730Z,64.80
2022-12-03T01:07:54.757Z,66.70
2022-12-03T01:08:05.395Z,67.00
2022-12-03T01:08:14.814Z,67.60
2022-12-03T01:08:24.650Z,66.90
2022-12-03T01:08:34.694Z,65.40
2022-12-03T01:08:44.649Z,63.80
2022-12-03T01:08:54.618Z,63.60
2022-12-03T01:09:04.637Z,63.60
2022-12-03T01:09:15.246Z,63.50
2022-12-03T01:09:24.692Z,64.20
2022-12-03T01:09:34.636Z,64.80
2022-12-03T01:09:44.655Z,65.50
2022-12-03T01:09:54.699Z,65.80
2022-12-03T01:10:04.636Z,66.10
2022-12-03T01:10:14.635Z,66.70
2022-12-03T01:10:24.614Z,65.90
2022-12-03T01:10:34.635Z,65.90
2022-12-03T01:10:44.655Z,66.00
2022-12-03T01:10:54.614Z,66.20
2022-12-03T01:11:05.226Z,66.50
2022-12-03T01:11:14.694Z,65.30
2022-12-03T01:11:24.709Z,65.20
2022-12-03T01:11:34.653Z,64.40
2022-12-03T01:11:44.639Z,64.50
2022-12-03T01:11:54.609Z,64.10
2022-12-03T01:12:04.619Z,63.50
2022-12-03T01:12:14.710Z,63.10
2022-12-03T01:12:24.605Z,64.20
2022-12-03T01:12:34.630Z,63.70
2022-12-03T01:12:44.666Z,64.50
2022-12-03T01:12:54.617Z,63.80
2022-12-03T01:13:04.623Z,64.10
2022-12-03T01:13:14.609Z,63.30
2022-12-03T01:13:24.719Z,64.20
2022-12-03T01:13:34.639Z,65.10
2022-12-03T01:13:44.599Z,65.80
2022-12-03T01:13:54.626Z,64.70
2022-12-03T01:14:04.638Z,63.10
2022-12-03T01:14:14.603Z,62.20
2022-12-03T01:14:24.616Z,63.30
2022-12-03T01:14:34.707Z,64.90
2022-12-03T01:14:44.599Z,65.60
2022-12-03T01:14:54.949Z,65.50
2022-12-03T01:15:04.806Z,64.40
2022-12-03T01:15:14.593Z,64.40
2022-12-03T01:15:24.609Z,64.20
2022-12-03T01:15:34.668Z,64.90
2022-12-03T01:15:44.653Z,65.60
2022-12-03T01:15:54.669Z,64.30
2022-12-03T01:16:04.668Z,63.70
2022-12-03T01:16:14.637Z,62.20
2022-12-03T01:16:24.769Z,62.90
2022-12-03T01:16:34.717Z,62.60
2022-12-03T01:16:44.642Z,63.00
2022-12-03T01:16:54.621Z,62.50
2022-12-03T01:17:04.596Z,63.10
2022-12-03T01:17:14.595Z,64.80
2022-12-03T01:17:24.627Z,64.80
2022-12-03T01:17:34.628Z,64.60
2022-12-03T01:17:44.618Z,62.90
2022-12-03T01:17:55.237Z,64.30
2022-12-03T01:18:04.588Z,65.20
2022-12-03T01:18:14.596Z,66.50
2022-12-03T01:18:25.292Z,65.10
2022-12-03T01:18:34.585Z,64.80
2022-12-03T01:18:44.598Z,65.00
2022-12-03T01:18:54.586Z,65.50
2022-12-03T01:19:04.584Z,64.70
2022-12-03T01:19:15.235Z,63.00
2022-12-03T01:19:24.582Z,64.00
2022-12-03T01:19:34.590Z,64.20
2022-12-03T01:19:48.199Z,65.90
2022-12-03T01:19:54.652Z,65.10
2022-12-03T01:20:04.583Z,65.80
2022-12-03T01:20:14.640Z,65.30
2022-12-03T01:20:25.259Z,63.80
2022-12-03T01:20:34.600Z,64.50
2022-12-03T01:20:44.583Z,65.80
2022-12-03T01:20:54.578Z,67.40
2022-12-03T01:21:04.589Z,66.30
2022-12-03T01:21:14.619Z,64.50
2022-12-03T01:21:24.578Z,63.90
2022-12-03T01:21:34.577Z,64.70
2022-12-03T01:21:44.582Z,65.50
2022-12-03T01:21:54.590Z,64.80
2022-12-03T01:22:04.593Z,64.00
2022-12-03T01:22:14.627Z,63.50
2022-12-03T01:22:24.569Z,64.60
2022-12-03T01:22:34.580Z,65.60
2022-12-03T01:22:44.566Z,65.70
2022-12-03T01:22:54.574Z,65.30
2022-12-03T01:23:04.611Z,65.40
2022-12-03T01:23:14.559Z,65.10
2022-12-03T01:23:24.619Z,65.90
2022-12-03T01:23:34.602Z,65.50
2022-12-03T01:23:44.571Z,65.00
2022-12-03T01:23:54.581Z,65.00
2022-12-03T01:24:04.589Z,65.20
2022-12-03T01:24:14.567Z,65.80
2022-12-03T01:24:24.568Z,65.60
2022-12-03T01:24:34.573Z,66.80
2022-12-03T01:24:44.583Z,65.20
2022-12-03T01:24:54.859Z,64.80
2022-12-03T01:25:04.722Z,61.90
2022-12-03T01:25:14.563Z,61.80
2022-12-03T01:25:24.728Z,62.00
2022-12-03T01:25:34.614Z,63.50
2022-12-03T01:25:45.396Z,64.20
2022-12-03T01:25:54.579Z,64.80
2022-12-03T01:26:04.609Z,65.20
2022-12-03T01:26:14.639Z,64.50
2022-12-03T01:26:24.621Z,63.50
2022-12-03T01:26:34.552Z,63.30
2022-12-03T01:26:44.548Z,63.60
2022-12-03T01:26:54.571Z,65.30
2022-12-03T01:27:04.545Z,66.30
2022-12-03T01:27:14.658Z,65.90
2022-12-03T01:27:25.239Z,65.50
2022-12-03T01:27:34.627Z,65.50
2022-12-03T01:27:44.554Z,65.70
2022-12-03T01:27:54.592Z,66.60
2022-12-03T01:28:04.546Z,65.70
2022-12-03T01:28:14.559Z,64.90
2022-12-03T01:28:24.537Z,63.60
2022-12-03T01:28:34.560Z,63.80
2022-12-03T01:28:44.566Z,65.30
2022-12-03T01:28:54.596Z,64.90
2022-12-03T01:29:04.565Z,64.00
2022-12-03T01:29:14.574Z,64.00
2022-12-03T01:29:24.638Z,65.40
2022-12-03T01:29:34.636Z,66.90
2022-12-03T01:29:44.556Z,65.90
2022-12-03T01:29:54.536Z,65.10
2022-12-03T01:30:04.547Z,64.70
2022-12-03T01:30:14.602Z,66.30
2022-12-03T01:30:27.302Z,66.00
2022-12-03T01:30:34.644Z,66.00
2022-12-03T01:30:44.676Z,65.40
2022-12-03T01:30:54.622Z,65.70
2022-12-03T01:31:04.594Z,65.00
2022-12-03T01:31:14.596Z,63.50
2022-12-03T01:31:24.871Z,63.80
2022-12-03T01:31:34.777Z,64.40
2022-12-03T01:31:47.322Z,65.80
2022-12-03T01:31:54.527Z,66.00
2022-12-03T01:32:04.559Z,67.00
2022-12-03T01:32:14.537Z,66.10
2022-12-03T01:32:24.562Z,64.40
2022-12-03T01:32:35.241Z,62.80
2022-12-03T01:32:44.529Z,64.00
2022-12-03T01:32:54.611Z,65.90
2022-12-03T01:33:04.545Z,65.60
2022-12-03T01:33:14.527Z,65.10
2022-12-03T01:33:24.578Z,63.70
2022-12-03T01:33:34.558Z,64.60
2022-12-03T01:33:44.524Z,64.40
2022-12-03T01:33:54.535Z,65.40
2022-12-03T01:34:04.610Z,63.60
2022-12-03T01:34:14.615Z,63.60
2022-12-03T01:34:24.539Z,62.80
2022-12-03T01:34:34.579Z,64.40
2022-12-03T01:34:44.529Z,64.40
2022-12-03T01:34:54.974Z,64.80
2022-12-03T01:35:05.233Z,64.90
2022-12-03T01:35:14.525Z,64.10
2022-12-03T01:35:24.545Z,63.00
2022-12-03T01:35:34.513Z,62.20
2022-12-03T01:35:44.562Z,63.30
2022-12-03T01:35:54.547Z,63.40
2022-12-03T01:36:04.520Z,62.40
2022-12-03T01:36:14.555Z,61.60
2022-12-03T01:36:24.550Z,60.70
2022-12-03T01:36:34.510Z,60.90
2022-12-03T01:36:44.520Z,61.90
2022-12-03T01:36:54.558Z,63.70
2022-12-03T01:37:04.515Z,63.30
2022-12-03T01:37:14.527Z,61.70
2022-12-03T01:37:25.279Z,62.00
2022-12-03T01:37:34.534Z,62.00
2022-12-03T01:37:44.517Z,63.70
2022-12-03T01:37:54.541Z,63.90
2022-12-03T01:38:04.519Z,64.70
2022-12-03T01:38:14.583Z,64.00
2022-12-03T01:38:24.506Z,64.00
2022-12-03T01:38:34.510Z,63.90
2022-12-03T01:38:45.246Z,64.10
2022-12-03T01:38:54.502Z,63.70
2022-12-03T01:39:04.522Z,65.00
2022-12-03T01:39:14.531Z,66.10
2022-12-03T01:39:24.508Z,65.50
2022-12-03T01:39:34.524Z,64.20
2022-12-03T01:39:44.524Z,63.90
2022-12-03T01:39:54.503Z,65.30
2022-12-03T01:40:04.509Z,65.10
2022-12-03T01:40:14.521Z,63.70
2022-12-03T01:40:24.496Z,60.40
2022-12-03T01:40:34.511Z,61.10
2022-12-03T01:40:44.544Z,61.10
2022-12-03T01:40:54.579Z,63.50
2022-12-03T01:41:08.638Z,62.70
2022-12-03T01:41:14.497Z,62.40
2022-12-03T01:41:24.511Z,62.50
2022-12-03T01:41:34.563Z,63.50
2022-12-03T01:41:44.497Z,63.20
2022-12-03T01:41:54.504Z,63.20
2022-12-03T01:42:04.517Z,61.50
2022-12-03T01:42:14.499Z,62.10
2022-12-03T01:42:24.542Z,62.80
2022-12-03T01:42:34.538Z,62.90
2022-12-03T01:42:44.521Z,62.90
2022-12-03T01:42:54.503Z,61.50
2022-12-03T01:43:04.658Z,62.30
2022-12-03T01:43:14.594Z,61.90
2022-12-03T01:43:24.508Z,62.40
2022-12-03T01:43:34.481Z,62.30
2022-12-03T01:43:44.485Z,64.10
2022-12-03T01:43:54.500Z,64.60
2022-12-03T01:44:04.536Z,63.80
2022-12-03T01:44:14.495Z,63.10
2022-12-03T01:44:24.551Z,62.50
2022-12-03T01:44:34.488Z,63.50
2022-12-03T01:44:44.504Z,64.10
2022-12-03T01:44:54.905Z,63.80
2022-12-03T01:45:04.553Z,63.80
2022-12-03T01:45:14.502Z,62.00
2022-12-03T01:45:24.523Z,62.70
2022-12-03T01:45:34.476Z,61.40
2022-12-03T01:45:45.230Z,63.30
2022-12-03T01:45:54.514Z,64.10
2022-12-03T01:46:04.595Z,63.60
2022-12-03T01:46:14.570Z,62.60
2022-12-03T01:46:24.624Z,62.30
2022-12-03T01:46:34.537Z,64.00
2022-12-03T01:46:44.549Z,63.90
2022-12-03T01:46:57.493Z,63.70
2022-12-03T01:47:04.556Z,63.60
2022-12-03T01:47:14.593Z,62.40
2022-12-03T01:47:24.475Z,62.10
2022-12-03T01:47:34.478Z,61.60
2022-12-03T01:47:44.484Z,63.20
2022-12-03T01:47:54.472Z,63.20
2022-12-03T01:48:04.478Z,63.30
2022-12-03T01:48:14.484Z,64.00
2022-12-03T01:48:24.476Z,64.20
2022-12-03T01:48:34.683Z,64.70
2022-12-03T01:48:44.495Z,64.40
2022-12-03T01:48:54.485Z,63.70
2022-12-03T01:49:04.461Z,63.30
2022-12-03T01:49:14.490Z,62.60
2022-12-03T01:49:24.470Z,63.80
2022-12-03T01:49:34.512Z,64.70
2022-12-03T01:49:44.454Z,64.80
2022-12-03T01:49:55.336Z,65.20
2022-12-03T01:50:04.470Z,64.50
2022-12-03T01:50:15.238Z,64.30
2022-12-03T01:50:24.460Z,63.70
2022-12-03T01:50:34.471Z,63.80
2022-12-03T01:50:44.557Z,64.10
2022-12-03T01:50:54.463Z,62.80
2022-12-03T01:51:05.231Z,63.70
2022-12-03T01:51:14.551Z,63.70
2022-12-03T01:51:24.450Z,63.80
2022-12-03T01:51:34.468Z,63.30
2022-12-03T01:51:44.459Z,63.20
2022-12-03T01:51:54.659Z,63.60
2022-12-03T01:52:04.471Z,63.20
2022-12-03T01:52:14.461Z,62.80
2022-12-03T01:52:24.464Z,63.10
2022-12-03T01:52:34.506Z,61.20
2022-12-03T01:52:44.518Z,61.00
2022-12-03T01:52:54.457Z,60.70
2022-12-03T01:53:04.443Z,62.30
2022-12-03T01:53:14.444Z,61.30
2022-12-03T01:53:24.486Z,60.20
2022-12-03T01:53:34.462Z,60.20
2022-12-03T01:53:44.447Z,60.80
2022-12-03T01:53:54.461Z,61.40
2022-12-03T01:54:05.251Z,61.30
2022-12-03T01:54:14.450Z,61.00
2022-12-03T01:54:24.461Z,60.80
2022-12-03T01:54:34.468Z,60.80
2022-12-03T01:54:44.472Z,61.00
2022-12-03T01:54:54.795Z,60.10
2022-12-03T01:55:04.439Z,59.50
2022-12-03T01:55:14.451Z,58.80
2022-12-03T01:55:24.472Z,59.60
2022-12-03T01:55:34.550Z,60.00
2022-12-03T01:55:48.467Z,60.80
2022-12-03T01:55:54.459Z,60.40
2022-12-03T01:56:04.449Z,61.10
2022-12-03T01:56:14.445Z,60.40
2022-12-03T01:56:24.566Z,61.40
2022-12-03T01:56:34.449Z,60.00
2022-12-03T01:56:44.445Z,59.50
2022-12-03T01:56:55.270Z,58.30
2022-12-03T01:57:04.434Z,60.10
2022-12-03T01:57:15.273Z,60.90
2022-12-03T01:57:24.430Z,60.60
2022-12-03T01:57:34.437Z,59.10
2022-12-03T01:57:44.442Z,59.70
2022-12-03T01:57:54.434Z,60.60
2022-12-03T01:58:04.433Z,61.90
2022-12-03T01:58:14.448Z,61.90
2022-12-03T01:58:24.427Z,62.20
2022-12-03T01:58:34.512Z,61.90
2022-12-03T01:58:44.444Z,61.90
2022-12-03T01:58:54.431Z,62.80
2022-12-03T01:59:04.445Z,63.10
2022-12-03T01:59:14.448Z,62.20
2022-12-03T01:59:24.435Z,60.00
2022-12-03T01:59:34.447Z,58.60
2022-12-03T01:59:44.490Z,59.20
2022-12-03T01:59:54.416Z,60.70
2022-12-03T02:00:04.429Z,61.30
2022-12-03T02:00:14.419Z,61.50
2022-12-03T02:00:24.425Z,59.70
2022-12-03T02:00:34.456Z,60.20
2022-12-03T02:00:44.497Z,58.90
2022-12-03T02:00:54.422Z,59.40
2022-12-03T02:01:04.444Z,58.50
2022-12-03T02:01:14.480Z,59.50
2022-12-03T02:01:25.309Z,58.50
2022-12-03T02:01:34.511Z,59.30
2022-12-03T02:01:44.521Z,58.00
2022-12-03T02:01:54.424Z,58.30
2022-12-03T02:02:04.544Z,56.80
2022-12-03T02:02:14.496Z,57.50
2022-12-03T02:02:24.412Z,59.00
2022-12-03T02:02:34.536Z,60.10
2022-12-03T02:02:44.403Z,60.20
2022-12-03T02:02:54.415Z,58.10
2022-12-03T02:03:04.405Z,56.60
2022-12-03T02:03:14.425Z,55.60
2022-12-03T02:03:24.428Z,56.30
2022-12-03T02:03:34.524Z,56.80
2022-12-03T02:03:44.491Z,57.10
2022-12-03T02:03:55.456Z,57.40
2022-12-03T02:04:04.486Z,57.10
2022-12-03T02:04:14.465Z,58.20
2022-12-03T02:04:24.482Z,58.00
2022-12-03T02:04:34.418Z,58.30
2022-12-03T02:04:44.405Z,57.70
2022-12-03T02:04:54.883Z,58.30
2022-12-03T02:05:04.406Z,58.70
2022-12-03T02:05:14.448Z,59.20
2022-12-03T02:05:24.423Z,59.80
2022-12-03T02:05:34.402Z,60.00
2022-12-03T02:05:44.412Z,58.60
2022-12-03T02:05:54.410Z,58.00
2022-12-03T02:06:04.394Z,58.40
2022-12-03T02:06:14.421Z,58.80
2022-12-03T02:06:24.412Z,58.90
2022-12-03T02:06:34.397Z,57.70
2022-12-03T02:06:44.826Z,57.30
2022-12-03T02:06:54.399Z,56.90
2022-12-03T02:07:04.432Z,57.50
2022-12-03T02:07:14.399Z,57.50
2022-12-03T02:07:24.479Z,57.70
2022-12-03T02:07:34.428Z,57.40
2022-12-03T02:07:44.498Z,58.00
2022-12-03T02:07:54.467Z,58.20
2022-12-03T02:08:04.653Z,58.30
2022-12-03T02:08:14.465Z,58.60
2022-12-03T02:08:24.402Z,58.40
2022-12-03T02:08:34.393Z,58.30
2022-12-03T02:08:44.406Z,59.10